sensor_id;sensor_type;location;lat;lon;timestamp;P1;durP1;ratioP1;P2;durP2;ratioP2
44116;SDS011;29781;49.480;8.512;2023-12-04T00:00:24;25.80;;;14.00;;
44116;SDS011;29781;49.480;8.512;2023-12-04T00:02:49;29.35;;;14.52;;
44116;SDS011;29781;49.480;8.512;2023-12-04T00:05:15;27.10;;;13.88;;
44116;SDS011;29781;49.480;8.512;2023-12-04T00:07:40;27.92;;;15.65;;
44116;SDS011;29781;49.480;8.512;2023-12-04T00:10:06;31.40;;;15.95;;
44116;SDS011;29781;49.480;8.512;2023-12-04T00:12:32;29.35;;;14.82;;
44116;SDS011;29781;49.480;8.512;2023-12-04T00:14:57;30.58;;;14.68;;
44116;SDS011;29781;49.480;8.512;2023-12-04T00:17:23;24.88;;;13.93;;
44116;SDS011;29781;49.480;8.512;2023-12-04T00:19:48;26.90;;;11.63;;
44116;SDS011;29781;49.480;8.512;2023-12-04T00:22:14;22.92;;;12.70;;
44116;SDS011;29781;49.480;8.512;2023-12-04T00:24:39;25.63;;;13.35;;
44116;SDS011;29781;49.480;8.512;2023-12-04T00:27:05;25.17;;;13.18;;
44116;SDS011;29781;49.480;8.512;2023-12-04T00:29:30;25.88;;;13.32;;
44116;SDS011;29781;49.480;8.512;2023-12-04T00:31:56;26.05;;;13.90;;
44116;SDS011;29781;49.480;8.512;2023-12-04T00:34:22;23.85;;;13.60;;
44116;SDS011;29781;49.480;8.512;2023-12-04T00:36:47;25.98;;;13.18;;
44116;SDS011;29781;49.480;8.512;2023-12-04T00:39:13;24.65;;;13.00;;
44116;SDS011;29781;49.480;8.512;2023-12-04T00:41:38;25.38;;;13.15;;
44116;SDS011;29781;49.480;8.512;2023-12-04T00:44:04;26.92;;;13.88;;
44116;SDS011;29781;49.480;8.512;2023-12-04T00:46:29;25.85;;;12.70;;
44116;SDS011;29781;49.480;8.512;2023-12-04T00:48:55;23.67;;;12.88;;
44116;SDS011;29781;49.480;8.512;2023-12-04T00:51:20;22.35;;;11.85;;
44116;SDS011;29781;49.480;8.512;2023-12-04T00:53:46;25.02;;;12.63;;
44116;SDS011;29781;49.480;8.512;2023-12-04T00:56:11;21.60;;;11.85;;
44116;SDS011;29781;49.480;8.512;2023-12-04T00:58:37;20.80;;;11.00;;
44116;SDS011;29781;49.480;8.512;2023-12-04T01:01:02;24.33;;;12.60;;
44116;SDS011;29781;49.480;8.512;2023-12-04T01:03:28;23.35;;;11.63;;
44116;SDS011;29781;49.480;8.512;2023-12-04T01:05:57;20.92;;;12.35;;
44116;SDS011;29781;49.480;8.512;2023-12-04T01:08:23;24.42;;;11.93;;
44116;SDS011;29781;49.480;8.512;2023-12-04T01:10:49;23.85;;;12.18;;
44116;SDS011;29781;49.480;8.512;2023-12-04T01:13:14;23.50;;;12.48;;
44116;SDS011;29781;49.480;8.512;2023-12-04T01:15:40;21.67;;;10.82;;
44116;SDS011;29781;49.480;8.512;2023-12-04T01:18:07;23.70;;;12.57;;
44116;SDS011;29781;49.480;8.512;2023-12-04T01:20:33;22.45;;;12.27;;
44116;SDS011;29781;49.480;8.512;2023-12-04T01:22:59;23.10;;;11.82;;
44116;SDS011;29781;49.480;8.512;2023-12-04T01:25:24;22.02;;;11.80;;
44116;SDS011;29781;49.480;8.512;2023-12-04T01:27:50;22.05;;;12.05;;
44116;SDS011;29781;49.480;8.512;2023-12-04T01:30:16;22.70;;;11.73;;
44116;SDS011;29781;49.480;8.512;2023-12-04T01:32:41;23.13;;;12.55;;
44116;SDS011;29781;49.480;8.512;2023-12-04T01:35:07;24.08;;;12.18;;
44116;SDS011;29781;49.480;8.512;2023-12-04T01:37:32;22.77;;;12.45;;
44116;SDS011;29781;49.480;8.512;2023-12-04T01:39:58;21.42;;;11.68;;
44116;SDS011;29781;49.480;8.512;2023-12-04T01:42:23;22.20;;;11.88;;
44116;SDS011;29781;49.480;8.512;2023-12-04T01:44:49;21.48;;;12.15;;
44116;SDS011;29781;49.480;8.512;2023-12-04T01:47:14;22.75;;;11.85;;
44116;SDS011;29781;49.480;8.512;2023-12-04T01:49:40;21.60;;;12.32;;
44116;SDS011;29781;49.480;8.512;2023-12-04T01:52:06;21.17;;;12.57;;
44116;SDS011;29781;49.480;8.512;2023-12-04T01:54:31;22.30;;;12.23;;
44116;SDS011;29781;49.480;8.512;2023-12-04T01:56:57;21.38;;;11.75;;
44116;SDS011;29781;49.480;8.512;2023-12-04T01:59:23;19.85;;;11.60;;
44116;SDS011;29781;49.480;8.512;2023-12-04T02:01:51;22.90;;;12.48;;
44116;SDS011;29781;49.480;8.512;2023-12-04T02:04:17;22.00;;;11.98;;
44116;SDS011;29781;49.480;8.512;2023-12-04T02:06:42;19.67;;;11.80;;
44116;SDS011;29781;49.480;8.512;2023-12-04T02:09:08;23.08;;;11.85;;
44116;SDS011;29781;49.480;8.512;2023-12-04T02:11:37;20.38;;;11.70;;
44116;SDS011;29781;49.480;8.512;2023-12-04T02:14:04;20.00;;;11.43;;
44116;SDS011;29781;49.480;8.512;2023-12-04T02:16:30;19.98;;;11.23;;
44116;SDS011;29781;49.480;8.512;2023-12-04T02:19:01;18.73;;;11.35;;
44116;SDS011;29781;49.480;8.512;2023-12-04T02:21:26;19.77;;;11.38;;
44116;SDS011;29781;49.480;8.512;2023-12-04T02:23:52;19.50;;;11.13;;
44116;SDS011;29781;49.480;8.512;2023-12-04T02:26:18;20.35;;;11.25;;
44116;SDS011;29781;49.480;8.512;2023-12-04T02:28:58;20.55;;;10.95;;
44116;SDS011;29781;49.480;8.512;2023-12-04T02:31:27;19.85;;;11.35;;
44116;SDS011;29781;49.480;8.512;2023-12-04T02:33:55;20.95;;;12.15;;
44116;SDS011;29781;49.480;8.512;2023-12-04T02:36:22;22.00;;;11.18;;
44116;SDS011;29781;49.480;8.512;2023-12-04T02:38:49;21.55;;;11.43;;
44116;SDS011;29781;49.480;8.512;2023-12-04T02:41:16;20.85;;;11.93;;
44116;SDS011;29781;49.480;8.512;2023-12-04T02:43:42;20.20;;;12.30;;
44116;SDS011;29781;49.480;8.512;2023-12-04T02:46:08;18.55;;;11.45;;
44116;SDS011;29781;49.480;8.512;2023-12-04T02:48:34;23.02;;;11.70;;
44116;SDS011;29781;49.480;8.512;2023-12-04T02:50:59;23.13;;;11.93;;
44116;SDS011;29781;49.480;8.512;2023-12-04T02:53:25;23.02;;;11.95;;
44116;SDS011;29781;49.480;8.512;2023-12-04T02:55:50;20.85;;;12.40;;
44116;SDS011;29781;49.480;8.512;2023-12-04T02:58:16;20.75;;;13.07;;
44116;SDS011;29781;49.480;8.512;2023-12-04T03:00:41;21.52;;;11.77;;
44116;SDS011;29781;49.480;8.512;2023-12-04T03:03:08;21.98;;;12.45;;
44116;SDS011;29781;49.480;8.512;2023-12-04T03:05:33;23.75;;;12.23;;
44116;SDS011;29781;49.480;8.512;2023-12-04T03:07:59;21.70;;;12.20;;
44116;SDS011;29781;49.480;8.512;2023-12-04T03:10:24;22.48;;;12.93;;
44116;SDS011;29781;49.480;8.512;2023-12-04T03:12:50;22.83;;;12.57;;
44116;SDS011;29781;49.480;8.512;2023-12-04T03:15:15;21.25;;;11.98;;
44116;SDS011;29781;49.480;8.512;2023-12-04T03:17:41;21.38;;;12.80;;
44116;SDS011;29781;49.480;8.512;2023-12-04T03:20:06;22.40;;;13.15;;
44116;SDS011;29781;49.480;8.512;2023-12-04T03:22:33;23.13;;;12.82;;
44116;SDS011;29781;49.480;8.512;2023-12-04T03:25:00;25.38;;;13.68;;
44116;SDS011;29781;49.480;8.512;2023-12-04T03:27:26;24.83;;;12.85;;
44116;SDS011;29781;49.480;8.512;2023-12-04T03:29:51;21.25;;;11.52;;
44116;SDS011;29781;49.480;8.512;2023-12-04T03:32:17;21.48;;;12.30;;
44116;SDS011;29781;49.480;8.512;2023-12-04T03:34:42;20.98;;;12.38;;
44116;SDS011;29781;49.480;8.512;2023-12-04T03:37:08;21.60;;;12.45;;
44116;SDS011;29781;49.480;8.512;2023-12-04T03:39:33;25.00;;;13.23;;
44116;SDS011;29781;49.480;8.512;2023-12-04T03:41:59;20.60;;;12.55;;
44116;SDS011;29781;49.480;8.512;2023-12-04T03:44:24;21.42;;;11.60;;
44116;SDS011;29781;49.480;8.512;2023-12-04T03:46:50;24.13;;;12.57;;
44116;SDS011;29781;49.480;8.512;2023-12-04T03:49:16;19.40;;;11.68;;
44116;SDS011;29781;49.480;8.512;2023-12-04T03:51:42;24.02;;;13.90;;
44116;SDS011;29781;49.480;8.512;2023-12-04T03:54:08;25.23;;;12.75;;
44116;SDS011;29781;49.480;8.512;2023-12-04T03:56:33;24.15;;;13.40;;
44116;SDS011;29781;49.480;8.512;2023-12-04T03:58:58;23.88;;;13.00;;
44116;SDS011;29781;49.480;8.512;2023-12-04T04:01:24;25.58;;;13.65;;
44116;SDS011;29781;49.480;8.512;2023-12-04T04:03:50;23.92;;;13.27;;
44116;SDS011;29781;49.480;8.512;2023-12-04T04:06:15;23.33;;;13.13;;
44116;SDS011;29781;49.480;8.512;2023-12-04T04:08:41;24.40;;;13.65;;
44116;SDS011;29781;49.480;8.512;2023-12-04T04:11:06;23.60;;;13.68;;
44116;SDS011;29781;49.480;8.512;2023-12-04T04:13:32;26.50;;;14.38;;
44116;SDS011;29781;49.480;8.512;2023-12-04T04:15:57;26.85;;;13.52;;
44116;SDS011;29781;49.480;8.512;2023-12-04T04:18:23;24.27;;;13.80;;
44116;SDS011;29781;49.480;8.512;2023-12-04T04:20:48;22.77;;;13.18;;
44116;SDS011;29781;49.480;8.512;2023-12-04T04:23:14;23.35;;;13.23;;
44116;SDS011;29781;49.480;8.512;2023-12-04T04:25:39;26.63;;;13.85;;
44116;SDS011;29781;49.480;8.512;2023-12-04T04:28:05;25.70;;;13.10;;
44116;SDS011;29781;49.480;8.512;2023-12-04T04:30:30;25.60;;;13.07;;
44116;SDS011;29781;49.480;8.512;2023-12-04T04:32:56;22.30;;;13.18;;
44116;SDS011;29781;49.480;8.512;2023-12-04T04:35:21;23.40;;;12.57;;
44116;SDS011;29781;49.480;8.512;2023-12-04T04:37:46;25.08;;;13.25;;
44116;SDS011;29781;49.480;8.512;2023-12-04T04:40:12;26.20;;;13.43;;
44116;SDS011;29781;49.480;8.512;2023-12-04T04:42:38;26.63;;;13.73;;
44116;SDS011;29781;49.480;8.512;2023-12-04T04:45:03;25.02;;;13.20;;
44116;SDS011;29781;49.480;8.512;2023-12-04T04:47:29;24.90;;;13.43;;
44116;SDS011;29781;49.480;8.512;2023-12-04T04:49:55;23.38;;;12.82;;
44116;SDS011;29781;49.480;8.512;2023-12-04T04:52:20;21.45;;;12.88;;
44116;SDS011;29781;49.480;8.512;2023-12-04T04:54:46;24.42;;;13.40;;
44116;SDS011;29781;49.480;8.512;2023-12-04T04:57:11;24.00;;;13.40;;
44116;SDS011;29781;49.480;8.512;2023-12-04T04:59:37;24.02;;;13.35;;
44116;SDS011;29781;49.480;8.512;2023-12-04T05:02:03;26.05;;;13.38;;
44116;SDS011;29781;49.480;8.512;2023-12-04T05:04:28;27.08;;;13.70;;
44116;SDS011;29781;49.480;8.512;2023-12-04T05:06:54;28.35;;;14.55;;
44116;SDS011;29781;49.480;8.512;2023-12-04T05:09:19;26.92;;;13.13;;
44116;SDS011;29781;49.480;8.512;2023-12-04T05:11:45;27.95;;;13.95;;
44116;SDS011;29781;49.480;8.512;2023-12-04T05:14:10;27.88;;;14.77;;
44116;SDS011;29781;49.480;8.512;2023-12-04T05:16:36;24.85;;;13.50;;
44116;SDS011;29781;49.480;8.512;2023-12-04T05:19:01;27.27;;;14.52;;
44116;SDS011;29781;49.480;8.512;2023-12-04T05:21:27;25.20;;;14.70;;
44116;SDS011;29781;49.480;8.512;2023-12-04T05:23:52;26.70;;;15.32;;
44116;SDS011;29781;49.480;8.512;2023-12-04T05:26:18;29.48;;;15.63;;
44116;SDS011;29781;49.480;8.512;2023-12-04T05:28:43;31.25;;;17.02;;
44116;SDS011;29781;49.480;8.512;2023-12-04T05:31:09;32.03;;;15.98;;
44116;SDS011;29781;49.480;8.512;2023-12-04T05:33:34;32.47;;;16.08;;
44116;SDS011;29781;49.480;8.512;2023-12-04T05:36:00;31.92;;;16.95;;
44116;SDS011;29781;49.480;8.512;2023-12-04T05:38:25;30.65;;;15.68;;
44116;SDS011;29781;49.480;8.512;2023-12-04T05:40:51;31.88;;;16.02;;
44116;SDS011;29781;49.480;8.512;2023-12-04T05:43:16;29.83;;;16.13;;
44116;SDS011;29781;49.480;8.512;2023-12-04T05:45:44;32.65;;;16.15;;
44116;SDS011;29781;49.480;8.512;2023-12-04T05:48:09;28.02;;;15.43;;
44116;SDS011;29781;49.480;8.512;2023-12-04T05:50:35;27.77;;;15.80;;
44116;SDS011;29781;49.480;8.512;2023-12-04T05:53:00;27.30;;;15.70;;
44116;SDS011;29781;49.480;8.512;2023-12-04T05:55:26;32.75;;;16.60;;
44116;SDS011;29781;49.480;8.512;2023-12-04T05:57:51;28.65;;;15.57;;
44116;SDS011;29781;49.480;8.512;2023-12-04T06:00:17;30.73;;;16.48;;
44116;SDS011;29781;49.480;8.512;2023-12-04T06:02:43;25.67;;;13.93;;
44116;SDS011;29781;49.480;8.512;2023-12-04T06:05:09;31.20;;;15.48;;
44116;SDS011;29781;49.480;8.512;2023-12-04T06:07:35;27.55;;;15.20;;
44116;SDS011;29781;49.480;8.512;2023-12-04T06:10:01;29.35;;;15.55;;
44116;SDS011;29781;49.480;8.512;2023-12-04T06:12:28;28.95;;;15.52;;
44116;SDS011;29781;49.480;8.512;2023-12-04T06:14:53;40.75;;;21.20;;
44116;SDS011;29781;49.480;8.512;2023-12-04T06:17:19;31.92;;;17.77;;
44116;SDS011;29781;49.480;8.512;2023-12-04T06:19:45;34.45;;;20.35;;
44116;SDS011;29781;49.480;8.512;2023-12-04T06:22:11;34.83;;;18.20;;
44116;SDS011;29781;49.480;8.512;2023-12-04T06:24:37;34.95;;;17.55;;
44116;SDS011;29781;49.480;8.512;2023-12-04T06:27:02;32.42;;;16.58;;
44116;SDS011;29781;49.480;8.512;2023-12-04T06:29:30;33.53;;;16.83;;
44116;SDS011;29781;49.480;8.512;2023-12-04T06:31:56;32.17;;;16.65;;
44116;SDS011;29781;49.480;8.512;2023-12-04T06:34:21;29.17;;;16.10;;
44116;SDS011;29781;49.480;8.512;2023-12-04T06:36:47;35.47;;;17.02;;
44116;SDS011;29781;49.480;8.512;2023-12-04T06:39:14;35.20;;;18.02;;
44116;SDS011;29781;49.480;8.512;2023-12-04T06:41:41;31.83;;;17.33;;
44116;SDS011;29781;49.480;8.512;2023-12-04T06:44:07;31.02;;;17.88;;
44116;SDS011;29781;49.480;8.512;2023-12-04T06:46:34;30.92;;;16.50;;
44116;SDS011;29781;49.480;8.512;2023-12-04T06:49:02;37.03;;;18.13;;
44116;SDS011;29781;49.480;8.512;2023-12-04T06:51:30;36.72;;;18.10;;
44116;SDS011;29781;49.480;8.512;2023-12-04T06:53:55;36.42;;;18.00;;
44116;SDS011;29781;49.480;8.512;2023-12-04T06:56:21;33.05;;;20.10;;
44116;SDS011;29781;49.480;8.512;2023-12-04T06:58:46;33.45;;;19.52;;
44116;SDS011;29781;49.480;8.512;2023-12-04T07:01:12;35.75;;;19.00;;
44116;SDS011;29781;49.480;8.512;2023-12-04T07:03:37;35.45;;;19.05;;
44116;SDS011;29781;49.480;8.512;2023-12-04T07:06:03;36.38;;;19.55;;
44116;SDS011;29781;49.480;8.512;2023-12-04T07:08:29;36.47;;;18.55;;
44116;SDS011;29781;49.480;8.512;2023-12-04T07:10:54;36.33;;;19.27;;
44116;SDS011;29781;49.480;8.512;2023-12-04T07:13:20;38.20;;;19.38;;
44116;SDS011;29781;49.480;8.512;2023-12-04T07:15:45;38.78;;;19.55;;
44116;SDS011;29781;49.480;8.512;2023-12-04T07:18:11;40.58;;;19.98;;
44116;SDS011;29781;49.480;8.512;2023-12-04T07:20:36;35.70;;;18.45;;
44116;SDS011;29781;49.480;8.512;2023-12-04T07:23:02;41.30;;;20.92;;
44116;SDS011;29781;49.480;8.512;2023-12-04T07:25:27;37.15;;;18.85;;
44116;SDS011;29781;49.480;8.512;2023-12-04T07:27:53;35.65;;;17.73;;
44116;SDS011;29781;49.480;8.512;2023-12-04T07:30:18;37.03;;;18.63;;
44116;SDS011;29781;49.480;8.512;2023-12-04T07:32:45;38.47;;;18.38;;
44116;SDS011;29781;49.480;8.512;2023-12-04T07:35:11;38.38;;;18.75;;
44116;SDS011;29781;49.480;8.512;2023-12-04T07:37:36;36.65;;;19.02;;
44116;SDS011;29781;49.480;8.512;2023-12-04T07:40:02;35.25;;;19.48;;
44116;SDS011;29781;49.480;8.512;2023-12-04T07:42:30;35.88;;;19.23;;
44116;SDS011;29781;49.480;8.512;2023-12-04T07:44:56;33.33;;;18.77;;
44116;SDS011;29781;49.480;8.512;2023-12-04T07:47:22;36.35;;;19.02;;
44116;SDS011;29781;49.480;8.512;2023-12-04T07:49:48;32.53;;;17.65;;
44116;SDS011;29781;49.480;8.512;2023-12-04T07:52:14;34.85;;;17.88;;
44116;SDS011;29781;49.480;8.512;2023-12-04T07:54:39;30.70;;;18.98;;
44116;SDS011;29781;49.480;8.512;2023-12-04T07:57:05;34.08;;;18.35;;
44116;SDS011;29781;49.480;8.512;2023-12-04T07:59:30;35.33;;;17.90;;
44116;SDS011;29781;49.480;8.512;2023-12-04T08:01:56;35.05;;;18.13;;
44116;SDS011;29781;49.480;8.512;2023-12-04T08:04:21;36.22;;;17.80;;
44116;SDS011;29781;49.480;8.512;2023-12-04T08:06:47;32.65;;;18.05;;
44116;SDS011;29781;49.480;8.512;2023-12-04T08:09:12;35.70;;;18.80;;
44116;SDS011;29781;49.480;8.512;2023-12-04T08:11:38;33.47;;;18.38;;
44116;SDS011;29781;49.480;8.512;2023-12-04T08:14:03;32.78;;;17.77;;
44116;SDS011;29781;49.480;8.512;2023-12-04T08:16:29;36.97;;;19.17;;
44116;SDS011;29781;49.480;8.512;2023-12-04T08:18:54;33.65;;;17.90;;
44116;SDS011;29781;49.480;8.512;2023-12-04T08:21:20;34.55;;;19.20;;
44116;SDS011;29781;49.480;8.512;2023-12-04T08:23:46;38.75;;;19.77;;
44116;SDS011;29781;49.480;8.512;2023-12-04T08:26:11;38.90;;;20.42;;
44116;SDS011;29781;49.480;8.512;2023-12-04T08:28:37;34.90;;;19.75;;
44116;SDS011;29781;49.480;8.512;2023-12-04T08:31:06;34.63;;;19.92;;
44116;SDS011;29781;49.480;8.512;2023-12-04T08:33:33;42.45;;;19.88;;
44116;SDS011;29781;49.480;8.512;2023-12-04T08:35:59;42.42;;;20.75;;
44116;SDS011;29781;49.480;8.512;2023-12-04T08:38:25;38.28;;;19.40;;
44116;SDS011;29781;49.480;8.512;2023-12-04T08:40:50;38.35;;;19.42;;
44116;SDS011;29781;49.480;8.512;2023-12-04T08:43:16;35.85;;;19.30;;
44116;SDS011;29781;49.480;8.512;2023-12-04T08:45:41;37.85;;;19.67;;
44116;SDS011;29781;49.480;8.512;2023-12-04T08:48:07;37.30;;;19.33;;
44116;SDS011;29781;49.480;8.512;2023-12-04T08:50:33;34.15;;;19.98;;
44116;SDS011;29781;49.480;8.512;2023-12-04T08:53:00;34.85;;;17.83;;
44116;SDS011;29781;49.480;8.512;2023-12-04T08:55:26;34.53;;;18.45;;
44116;SDS011;29781;49.480;8.512;2023-12-04T08:57:52;33.13;;;17.85;;
44116;SDS011;29781;49.480;8.512;2023-12-04T09:00:17;32.88;;;17.75;;
44116;SDS011;29781;49.480;8.512;2023-12-04T09:02:43;38.22;;;17.88;;
44116;SDS011;29781;49.480;8.512;2023-12-04T09:05:08;34.72;;;17.63;;
44116;SDS011;29781;49.480;8.512;2023-12-04T09:07:35;32.67;;;17.90;;
44116;SDS011;29781;49.480;8.512;2023-12-04T09:10:01;32.33;;;17.27;;
44116;SDS011;29781;49.480;8.512;2023-12-04T09:12:27;31.92;;;17.52;;
44116;SDS011;29781;49.480;8.512;2023-12-04T09:14:52;31.17;;;17.42;;
44116;SDS011;29781;49.480;8.512;2023-12-04T09:17:18;32.30;;;18.38;;
44116;SDS011;29781;49.480;8.512;2023-12-04T09:19:43;33.17;;;17.73;;
44116;SDS011;29781;49.480;8.512;2023-12-04T09:22:09;30.40;;;17.67;;
44116;SDS011;29781;49.480;8.512;2023-12-04T09:24:35;31.15;;;17.15;;
44116;SDS011;29781;49.480;8.512;2023-12-04T09:27:00;32.00;;;18.20;;
44116;SDS011;29781;49.480;8.512;2023-12-04T09:29:26;31.60;;;17.40;;
44116;SDS011;29781;49.480;8.512;2023-12-04T09:31:51;31.20;;;16.23;;
44116;SDS011;29781;49.480;8.512;2023-12-04T09:34:17;28.73;;;16.50;;
44116;SDS011;29781;49.480;8.512;2023-12-04T09:36:43;30.17;;;17.42;;
44116;SDS011;29781;49.480;8.512;2023-12-04T09:39:08;30.50;;;16.60;;
44116;SDS011;29781;49.480;8.512;2023-12-04T09:41:35;29.00;;;15.60;;
44116;SDS011;29781;49.480;8.512;2023-12-04T09:44:03;30.02;;;14.90;;
44116;SDS011;29781;49.480;8.512;2023-12-04T09:46:28;24.83;;;14.25;;
44116;SDS011;29781;49.480;8.512;2023-12-04T09:48:55;25.67;;;14.45;;
44116;SDS011;29781;49.480;8.512;2023-12-04T09:51:22;28.60;;;14.63;;
44116;SDS011;29781;49.480;8.512;2023-12-04T09:53:50;26.35;;;14.25;;
44116;SDS011;29781;49.480;8.512;2023-12-04T09:56:17;29.52;;;13.88;;
44116;SDS011;29781;49.480;8.512;2023-12-04T09:58:43;26.38;;;13.52;;
44116;SDS011;29781;49.480;8.512;2023-12-04T10:01:10;25.15;;;13.40;;
44116;SDS011;29781;49.480;8.512;2023-12-04T10:03:36;28.50;;;13.90;;
44116;SDS011;29781;49.480;8.512;2023-12-04T10:06:02;25.60;;;13.75;;
44116;SDS011;29781;49.480;8.512;2023-12-04T10:08:29;25.60;;;13.55;;
44116;SDS011;29781;49.480;8.512;2023-12-04T10:10:55;29.25;;;13.63;;
44116;SDS011;29781;49.480;8.512;2023-12-04T10:13:20;22.92;;;13.52;;
44116;SDS011;29781;49.480;8.512;2023-12-04T10:15:49;24.58;;;13.55;;
44116;SDS011;29781;49.480;8.512;2023-12-04T10:18:24;22.10;;;11.15;;
44116;SDS011;29781;49.480;8.512;2023-12-04T10:20:54;19.85;;;11.23;;
44116;SDS011;29781;49.480;8.512;2023-12-04T10:23:20;21.33;;;10.55;;
44116;SDS011;29781;49.480;8.512;2023-12-04T10:25:46;21.55;;;11.13;;
44116;SDS011;29781;49.480;8.512;2023-12-04T10:28:16;22.85;;;11.20;;
44116;SDS011;29781;49.480;8.512;2023-12-04T10:30:43;18.25;;;9.95;;
44116;SDS011;29781;49.480;8.512;2023-12-04T10:33:08;13.23;;;7.82;;
44116;SDS011;29781;49.480;8.512;2023-12-04T10:35:35;11.52;;;7.63;;
44116;SDS011;29781;49.480;8.512;2023-12-04T10:38:05;15.93;;;8.05;;
44116;SDS011;29781;49.480;8.512;2023-12-04T10:40:32;13.20;;;7.70;;
44116;SDS011;29781;49.480;8.512;2023-12-04T10:43:12;15.10;;;7.72;;
44116;SDS011;29781;49.480;8.512;2023-12-04T10:45:42;18.60;;;7.75;;
44116;SDS011;29781;49.480;8.512;2023-12-04T10:48:09;13.80;;;8.05;;
44116;SDS011;29781;49.480;8.512;2023-12-04T10:50:42;14.25;;;8.68;;
44116;SDS011;29781;49.480;8.512;2023-12-04T10:53:13;16.02;;;8.50;;
44116;SDS011;29781;49.480;8.512;2023-12-04T10:55:40;14.85;;;6.80;;
44116;SDS011;29781;49.480;8.512;2023-12-04T10:58:09;14.75;;;7.95;;
44116;SDS011;29781;49.480;8.512;2023-12-04T11:00:42;17.98;;;8.65;;
44116;SDS011;29781;49.480;8.512;2023-12-04T11:03:21;16.15;;;8.50;;
44116;SDS011;29781;49.480;8.512;2023-12-04T11:06:19;16.00;;;8.55;;
44116;SDS011;29781;49.480;8.512;2023-12-04T11:08:46;14.50;;;7.75;;
44116;SDS011;29781;49.480;8.512;2023-12-04T11:13:55;15.85;;;8.23;;
44116;SDS011;29781;49.480;8.512;2023-12-04T11:16:46;21.50;;;11.35;;
44116;SDS011;29781;49.480;8.512;2023-12-04T11:19:29;20.42;;;10.20;;
44116;SDS011;29781;49.480;8.512;2023-12-04T11:22:02;19.38;;;10.20;;
44116;SDS011;29781;49.480;8.512;2023-12-04T11:24:29;19.38;;;11.23;;
44116;SDS011;29781;49.480;8.512;2023-12-04T11:26:56;20.27;;;11.98;;
44116;SDS011;29781;49.480;8.512;2023-12-04T11:29:22;22.77;;;13.23;;
44116;SDS011;29781;49.480;8.512;2023-12-04T11:31:49;28.35;;;15.57;;
44116;SDS011;29781;49.480;8.512;2023-12-04T11:34:15;25.88;;;13.50;;
44116;SDS011;29781;49.480;8.512;2023-12-04T11:36:41;21.67;;;12.35;;
44116;SDS011;29781;49.480;8.512;2023-12-04T11:39:10;26.02;;;13.80;;
44116;SDS011;29781;49.480;8.512;2023-12-04T11:41:36;24.67;;;13.10;;
44116;SDS011;29781;49.480;8.512;2023-12-04T11:44:02;28.80;;;18.50;;
44116;SDS011;29781;49.480;8.512;2023-12-04T11:46:29;25.55;;;14.85;;
44116;SDS011;29781;49.480;8.512;2023-12-04T11:48:57;28.90;;;15.63;;
44116;SDS011;29781;49.480;8.512;2023-12-04T11:54:12;27.92;;;15.98;;
44116;SDS011;29781;49.480;8.512;2023-12-04T11:56:40;29.45;;;16.05;;
44116;SDS011;29781;49.480;8.512;2023-12-04T11:59:06;34.63;;;16.67;;
44116;SDS011;29781;49.480;8.512;2023-12-04T12:01:33;30.23;;;16.23;;
44116;SDS011;29781;49.480;8.512;2023-12-04T12:03:59;30.40;;;15.63;;
44116;SDS011;29781;49.480;8.512;2023-12-04T12:06:25;30.30;;;16.77;;
44116;SDS011;29781;49.480;8.512;2023-12-04T12:08:52;30.58;;;16.77;;
44116;SDS011;29781;49.480;8.512;2023-12-04T12:11:19;29.50;;;16.35;;
44116;SDS011;29781;49.480;8.512;2023-12-04T12:13:45;27.80;;;16.10;;
44116;SDS011;29781;49.480;8.512;2023-12-04T12:16:11;31.90;;;16.77;;
44116;SDS011;29781;49.480;8.512;2023-12-04T12:18:36;29.63;;;15.18;;
44116;SDS011;29781;49.480;8.512;2023-12-04T12:21:02;30.67;;;15.90;;
44116;SDS011;29781;49.480;8.512;2023-12-04T12:23:28;32.58;;;16.50;;
44116;SDS011;29781;49.480;8.512;2023-12-04T12:25:54;30.27;;;16.55;;
44116;SDS011;29781;49.480;8.512;2023-12-04T12:28:20;30.33;;;16.27;;
44116;SDS011;29781;49.480;8.512;2023-12-04T12:30:45;36.13;;;16.73;;
44116;SDS011;29781;49.480;8.512;2023-12-04T12:33:13;29.77;;;15.88;;
44116;SDS011;29781;49.480;8.512;2023-12-04T12:35:39;28.10;;;15.00;;
44116;SDS011;29781;49.480;8.512;2023-12-04T12:38:05;27.25;;;14.90;;
44116;SDS011;29781;49.480;8.512;2023-12-04T12:40:30;25.55;;;14.23;;
44116;SDS011;29781;49.480;8.512;2023-12-04T12:43:07;27.00;;;15.23;;
44116;SDS011;29781;49.480;8.512;2023-12-04T12:45:40;28.63;;;15.55;;
44116;SDS011;29781;49.480;8.512;2023-12-04T12:48:12;26.70;;;14.48;;
44116;SDS011;29781;49.480;8.512;2023-12-04T12:50:38;28.38;;;15.23;;
44116;SDS011;29781;49.480;8.512;2023-12-04T12:53:04;33.80;;;16.13;;
44116;SDS011;29781;49.480;8.512;2023-12-04T12:55:30;31.30;;;17.70;;
44116;SDS011;29781;49.480;8.512;2023-12-04T12:57:55;27.85;;;15.63;;
44116;SDS011;29781;49.480;8.512;2023-12-04T13:00:22;26.92;;;15.50;;
44116;SDS011;29781;49.480;8.512;2023-12-04T13:02:47;28.08;;;15.50;;
44116;SDS011;29781;49.480;8.512;2023-12-04T13:05:13;27.67;;;16.77;;
44116;SDS011;29781;49.480;8.512;2023-12-04T13:07:39;49.55;;;29.95;;
44116;SDS011;29781;49.480;8.512;2023-12-04T13:10:06;39.38;;;22.52;;
44116;SDS011;29781;49.480;8.512;2023-12-04T13:12:33;60.58;;;32.35;;
44116;SDS011;29781;49.480;8.512;2023-12-04T13:14:59;50.30;;;27.50;;
44116;SDS011;29781;49.480;8.512;2023-12-04T13:17:24;49.05;;;27.90;;
44116;SDS011;29781;49.480;8.512;2023-12-04T13:19:50;27.33;;;17.70;;
44116;SDS011;29781;49.480;8.512;2023-12-04T13:22:15;24.40;;;14.70;;
44116;SDS011;29781;49.480;8.512;2023-12-04T13:24:41;18.90;;;11.25;;
44116;SDS011;29781;49.480;8.512;2023-12-04T13:27:06;16.90;;;10.82;;
44116;SDS011;29781;49.480;8.512;2023-12-04T13:29:33;20.80;;;11.15;;
44116;SDS011;29781;49.480;8.512;2023-12-04T13:31:59;21.73;;;11.18;;
44116;SDS011;29781;49.480;8.512;2023-12-04T13:34:28;19.08;;;10.70;;
44116;SDS011;29781;49.480;8.512;2023-12-04T13:36:54;18.63;;;10.73;;
44116;SDS011;29781;49.480;8.512;2023-12-04T13:39:20;20.65;;;10.95;;
44116;SDS011;29781;49.480;8.512;2023-12-04T13:42:04;20.60;;;11.90;;
44116;SDS011;29781;49.480;8.512;2023-12-04T13:44:48;21.77;;;11.07;;
44116;SDS011;29781;49.480;8.512;2023-12-04T13:47:13;18.23;;;11.10;;
44116;SDS011;29781;49.480;8.512;2023-12-04T13:49:40;18.27;;;11.20;;
44116;SDS011;29781;49.480;8.512;2023-12-04T13:52:06;20.10;;;11.25;;
44116;SDS011;29781;49.480;8.512;2023-12-04T13:54:33;20.15;;;11.10;;
44116;SDS011;29781;49.480;8.512;2023-12-04T13:57:12;19.73;;;11.25;;
44116;SDS011;29781;49.480;8.512;2023-12-04T13:59:53;22.08;;;11.65;;
44116;SDS011;29781;49.480;8.512;2023-12-04T14:02:22;21.02;;;11.63;;
44116;SDS011;29781;49.480;8.512;2023-12-04T14:04:47;26.05;;;12.55;;
44116;SDS011;29781;49.480;8.512;2023-12-04T14:07:13;19.17;;;11.23;;
44116;SDS011;29781;49.480;8.512;2023-12-04T14:09:39;18.50;;;11.20;;
44116;SDS011;29781;49.480;8.512;2023-12-04T14:12:05;20.15;;;12.40;;
44116;SDS011;29781;49.480;8.512;2023-12-04T14:14:31;23.92;;;12.77;;
44116;SDS011;29781;49.480;8.512;2023-12-04T14:16:58;21.60;;;11.43;;
44116;SDS011;29781;49.480;8.512;2023-12-04T14:19:24;19.90;;;11.70;;
44116;SDS011;29781;49.480;8.512;2023-12-04T14:21:49;21.98;;;12.43;;